sensor_id;sensor_type;location;lat;lon;timestamp;pressure;altitude;pressure_sealevel;temperature;humidity
72308;BME280;60257;42.638;23.376;2023-04-25T00:00:56;93897.66;;;10.54;81.42
72308;BME280;60257;42.638;23.376;2023-04-25T00:03:21;93886.75;;;10.58;81.10
72308;BME280;60257;42.638;23.376;2023-04-25T00:05:47;93873.53;;;10.63;82.04
72308;BME280;60257;42.638;23.376;2023-04-25T00:08:13;93877.19;;;10.71;82.65
72308;BME280;60257;42.638;23.376;2023-04-25T00:10:38;93864.63;;;10.70;82.64
72308;BME280;60257;42.638;23.376;2023-04-25T00:13:03;93862.75;;;10.74;82.82
72308;BME280;60257;42.638;23.376;2023-04-25T00:15:29;93854.19;;;10.79;83.11
72308;BME280;60257;42.638;23.376;2023-04-25T00:17:58;93855.53;;;10.89;83.02
72308;BME280;60257;42.638;23.376;2023-04-25T00:20:23;93859.38;;;10.84;83.52
72308;BME280;60257;42.638;23.376;2023-04-25T00:22:50;93855.00;;;10.79;84.05
72308;BME280;60257;42.638;23.376;2023-04-25T00:25:16;93845.53;;;10.77;84.53
72308;BME280;60257;42.638;23.376;2023-04-25T00:27:41;93848.97;;;10.70;84.55
72308;BME280;60257;42.638;23.376;2023-04-25T00:30:07;93826.44;;;10.58;84.51
72308;BME280;60257;42.638;23.376;2023-04-25T00:32:33;93818.22;;;10.58;84.26
72308;BME280;60257;42.638;23.376;2023-04-25T00:34:59;93816.75;;;10.64;84.42
72308;BME280;60257;42.638;23.376;2023-04-25T00:37:24;93820.28;;;10.64;84.63
72308;BME280;60257;42.638;23.376;2023-04-25T00:39:50;93816.75;;;10.64;84.29
72308;BME280;60257;42.638;23.376;2023-04-25T00:42:16;93817.88;;;10.59;84.53
72308;BME280;60257;42.638;23.376;2023-04-25T00:44:42;93799.75;;;10.55;84.30
72308;BME280;60257;42.638;23.376;2023-04-25T00:47:08;93805.31;;;10.58;84.18
72308;BME280;60257;42.638;23.376;2023-04-25T00:49:36;93799.88;;;10.62;84.26
72308;BME280;60257;42.638;23.376;2023-04-25T00:52:01;93784.41;;;10.50;84.45
72308;BME280;60257;42.638;23.376;2023-04-25T00:54:27;93793.81;;;10.49;84.67
72308;BME280;60257;42.638;23.376;2023-04-25T00:56:52;93796.06;;;10.44;84.52
72308;BME280;60257;42.638;23.376;2023-04-25T00:59:19;93795.72;;;10.45;84.40
72308;BME280;60257;42.638;23.376;2023-04-25T01:01:45;93790.94;;;10.42;84.64
72308;BME280;60257;42.638;23.376;2023-04-25T01:04:11;93773.59;;;10.34;84.66
72308;BME280;60257;42.638;23.376;2023-04-25T01:06:36;93787.84;;;10.44;83.68
72308;BME280;60257;42.638;23.376;2023-04-25T01:09:02;93786.56;;;10.37;83.72
72308;BME280;60257;42.638;23.376;2023-04-25T01:11:28;93790.47;;;10.36;83.72
72308;BME280;60257;42.638;23.376;2023-04-25T01:13:53;93783.84;;;10.37;83.64
72308;BME280;60257;42.638;23.376;2023-04-25T01:16:19;93770.59;;;10.43;83.26
72308;BME280;60257;42.638;23.376;2023-04-25T01:18:45;93775.09;;;10.55;83.33
72308;BME280;60257;42.638;23.376;2023-04-25T01:21:11;93759.00;;;10.53;83.46
72308;BME280;60257;42.638;23.376;2023-04-25T01:23:39;93753.00;;;10.44;82.86
72308;BME280;60257;42.638;23.376;2023-04-25T01:26:06;93763.09;;;10.40;82.85
72308;BME280;60257;42.638;23.376;2023-04-25T01:28:34;93758.00;;;10.38;83.04
72308;BME280;60257;42.638;23.376;2023-04-25T01:31:00;93757.75;;;10.24;83.26
72308;BME280;60257;42.638;23.376;2023-04-25T01:33:26;93769.06;;;10.00;83.01
72308;BME280;60257;42.638;23.376;2023-04-25T01:35:51;93773.38;;;10.01;83.68
72308;BME280;60257;42.638;23.376;2023-04-25T01:38:17;93763.28;;;10.05;83.52
72308;BME280;60257;42.638;23.376;2023-04-25T01:40:45;93765.78;;;10.14;83.53
72308;BME280;60257;42.638;23.376;2023-04-25T01:43:11;93774.28;;;10.09;83.66
72308;BME280;60257;42.638;23.376;2023-04-25T01:45:38;93769.44;;;9.98;83.82
72308;BME280;60257;42.638;23.376;2023-04-25T01:48:10;93772.78;;;9.88;84.76
72308;BME280;60257;42.638;23.376;2023-04-25T01:50:38;93791.44;;;9.60;85.79
72308;BME280;60257;42.638;23.376;2023-04-25T01:53:04;93785.88;;;9.56;85.85
72308;BME280;60257;42.638;23.376;2023-04-25T01:55:30;93789.09;;;9.62;86.06
72308;BME280;60257;42.638;23.376;2023-04-25T01:57:55;93765.06;;;9.52;86.09
72308;BME280;60257;42.638;23.376;2023-04-25T02:00:21;93784.91;;;9.68;86.28
72308;BME280;60257;42.638;23.376;2023-04-25T02:02:47;93781.88;;;9.73;85.94
72308;BME280;60257;42.638;23.376;2023-04-25T02:05:13;93781.19;;;9.57;86.44
72308;BME280;60257;42.638;23.376;2023-04-25T02:07:39;93788.97;;;9.55;86.74
72308;BME280;60257;42.638;23.376;2023-04-25T02:10:04;93788.78;;;9.44;87.52
72308;BME280;60257;42.638;23.376;2023-04-25T02:12:31;93779.53;;;9.52;87.56
72308;BME280;60257;42.638;23.376;2023-04-25T02:14:57;93761.31;;;9.60;86.81
72308;BME280;60257;42.638;23.376;2023-04-25T02:17:22;93774.75;;;9.69;86.76
72308;BME280;60257;42.638;23.376;2023-04-25T02:19:48;93756.03;;;9.71;86.87
72308;BME280;60257;42.638;23.376;2023-04-25T02:22:13;93746.88;;;9.63;86.68
72308;BME280;60257;42.638;23.376;2023-04-25T02:24:39;93761.00;;;9.65;86.74
72308;BME280;60257;42.638;23.376;2023-04-25T02:27:04;93754.13;;;9.52;87.06
72308;BME280;60257;42.638;23.376;2023-04-25T02:29:30;93752.66;;;9.58;87.00
72308;BME280;60257;42.638;23.376;2023-04-25T02:31:55;93738.91;;;9.54;86.77
72308;BME280;60257;42.638;23.376;2023-04-25T02:34:21;93720.34;;;9.44;86.78
72308;BME280;60257;42.638;23.376;2023-04-25T02:36:48;93737.63;;;9.48;87.17
72308;BME280;60257;42.638;23.376;2023-04-25T02:39:13;93728.84;;;9.39;87.27
72308;BME280;60257;42.638;23.376;2023-04-25T02:41:39;93748.34;;;9.38;87.35
72308;BME280;60257;42.638;23.376;2023-04-25T02:44:05;93747.41;;;9.30;87.76
72308;BME280;60257;42.638;23.376;2023-04-25T02:46:30;93746.63;;;9.30;87.77
72308;BME280;60257;42.638;23.376;2023-04-25T02:48:56;93738.38;;;9.26;87.53
72308;BME280;60257;42.638;23.376;2023-04-25T02:51:21;93740.56;;;9.40;87.28
72308;BME280;60257;42.638;23.376;2023-04-25T02:53:46;93729.59;;;9.36;87.25
72308;BME280;60257;42.638;23.376;2023-04-25T02:56:12;93728.72;;;9.32;87.57
72308;BME280;60257;42.638;23.376;2023-04-25T02:58:37;93725.13;;;9.28;87.70
72308;BME280;60257;42.638;23.376;2023-04-25T03:01:03;93713.88;;;9.14;87.72
72308;BME280;60257;42.638;23.376;2023-04-25T03:03:28;93729.28;;;9.22;87.32
72308;BME280;60257;42.638;23.376;2023-04-25T03:05:53;93733.09;;;9.17;87.56
72308;BME280;60257;42.638;23.376;2023-04-25T03:08:19;93720.59;;;9.16;87.46
72308;BME280;60257;42.638;23.376;2023-04-25T03:10:45;93713.47;;;9.12;87.89
72308;BME280;60257;42.638;23.376;2023-04-25T03:13:11;93724.69;;;9.26;87.97
72308;BME280;60257;42.638;23.376;2023-04-25T03:15:37;93711.44;;;9.28;87.33
72308;BME280;60257;42.638;23.376;2023-04-25T03:18:03;93716.19;;;9.31;87.41
72308;BME280;60257;42.638;23.376;2023-04-25T03:20:28;93718.91;;;9.31;87.23
72308;BME280;60257;42.638;23.376;2023-04-25T03:22:54;93722.53;;;9.35;87.64
72308;BME280;60257;42.638;23.376;2023-04-25T03:25:20;93716.63;;;9.33;87.73
72308;BME280;60257;42.638;23.376;2023-04-25T03:27:46;93720.19;;;9.37;88.07
72308;BME280;60257;42.638;23.376;2023-04-25T03:30:11;93722.31;;;9.44;87.95
72308;BME280;60257;42.638;23.376;2023-04-25T03:32:37;93707.63;;;9.33;87.84
72308;BME280;60257;42.638;23.376;2023-04-25T03:35:03;93719.19;;;9.45;87.79
72308;BME280;60257;42.638;23.376;2023-04-25T03:37:28;93707.88;;;9.47;87.71
72308;BME280;60257;42.638;23.376;2023-04-25T03:39:54;93703.75;;;9.56;87.18
72308;BME280;60257;42.638;23.376;2023-04-25T03:42:19;93727.69;;;9.59;87.31
72308;BME280;60257;42.638;23.376;2023-04-25T03:44:48;93729.66;;;9.62;87.06
72308;BME280;60257;42.638;23.376;2023-04-25T03:47:13;93718.44;;;9.68;87.02
72308;BME280;60257;42.638;23.376;2023-04-25T03:49:39;93727.13;;;9.73;86.77
72308;BME280;60257;42.638;23.376;2023-04-25T03:52:04;93721.59;;;9.70;86.74
72308;BME280;60257;42.638;23.376;2023-04-25T03:54:30;93725.00;;;9.86;86.60
72308;BME280;60257;42.638;23.376;2023-04-25T03:56:56;93703.09;;;9.86;85.71
72308;BME280;60257;42.638;23.376;2023-04-25T03:59:21;93711.50;;;9.96;85.92
72308;BME280;60257;42.638;23.376;2023-04-25T04:01:47;93706.56;;;10.06;85.63
72308;BME280;60257;42.638;23.376;2023-04-25T04:04:12;93700.44;;;10.16;85.57
72308;BME280;60257;42.638;23.376;2023-04-25T04:06:38;93703.31;;;10.23;85.55
72308;BME280;60257;42.638;23.376;2023-04-25T04:09:05;93710.50;;;10.31;84.63
72308;BME280;60257;42.638;23.376;2023-04-25T04:11:34;93713.25;;;10.31;84.27
72308;BME280;60257;42.638;23.376;2023-04-25T04:14:01;93737.19;;;10.34;84.37
72308;BME280;60257;42.638;23.376;2023-04-25T04:16:27;93733.91;;;10.25;84.60
72308;BME280;60257;42.638;23.376;2023-04-25T04:18:52;93715.19;;;10.08;85.10
72308;BME280;60257;42.638;23.376;2023-04-25T04:21:18;93725.09;;;10.16;85.23
72308;BME280;60257;42.638;23.376;2023-04-25T04:23:43;93729.75;;;10.12;85.23
72308;BME280;60257;42.638;23.376;2023-04-25T04:26:09;93711.78;;;10.14;85.19
72308;BME280;60257;42.638;23.376;2023-04-25T04:28:35;93730.19;;;10.14;84.91
72308;BME280;60257;42.638;23.376;2023-04-25T04:31:00;93722.47;;;10.19;85.47
72308;BME280;60257;42.638;23.376;2023-04-25T04:33:27;93731.63;;;10.30;85.14
72308;BME280;60257;42.638;23.376;2023-04-25T04:35:53;93710.13;;;10.32;84.92
72308;BME280;60257;42.638;23.376;2023-04-25T04:38:20;93730.81;;;10.53;84.30
72308;BME280;60257;42.638;23.376;2023-04-25T04:40:46;93710.75;;;10.45;84.05
72308;BME280;60257;42.638;23.376;2023-04-25T04:43:12;93727.00;;;10.61;83.58
72308;BME280;60257;42.638;23.376;2023-04-25T04:45:38;93719.25;;;10.66;83.47
72308;BME280;60257;42.638;23.376;2023-04-25T04:48:06;93723.44;;;10.87;83.31
72308;BME280;60257;42.638;23.376;2023-04-25T04:50:31;93711.31;;;10.88;82.82
72308;BME280;60257;42.638;23.376;2023-04-25T04:52:57;93724.41;;;10.98;82.35
72308;BME280;60257;42.638;23.376;2023-04-25T04:55:23;93718.06;;;10.94;82.66
72308;BME280;60257;42.638;23.376;2023-04-25T04:57:48;93736.25;;;11.05;82.35
72308;BME280;60257;42.638;23.376;2023-04-25T05:00:14;93737.94;;;11.13;82.09
72308;BME280;60257;42.638;23.376;2023-04-25T05:02:40;93736.78;;;11.14;81.04
72308;BME280;60257;42.638;23.376;2023-04-25T05:05:06;93735.47;;;11.05;80.66
72308;BME280;60257;42.638;23.376;2023-04-25T05:07:33;93738.56;;;10.73;81.54
72308;BME280;60257;42.638;23.376;2023-04-25T05:09:58;93747.47;;;10.67;82.18
72308;BME280;60257;42.638;23.376;2023-04-25T05:12:24;93751.66;;;10.61;82.75
72308;BME280;60257;42.638;23.376;2023-04-25T05:14:49;93761.34;;;10.51;83.54
72308;BME280;60257;42.638;23.376;2023-04-25T05:17:15;93763.97;;;10.44;83.65
72308;BME280;60257;42.638;23.376;2023-04-25T05:19:40;93754.53;;;10.68;83.13
72308;BME280;60257;42.638;23.376;2023-04-25T05:22:06;93763.97;;;10.70;81.85
72308;BME280;60257;42.638;23.376;2023-04-25T05:24:31;93762.78;;;10.68;82.24
72308;BME280;60257;42.638;23.376;2023-04-25T05:26:57;93750.13;;;10.60;81.14
72308;BME280;60257;42.638;23.376;2023-04-25T05:29:22;93738.28;;;10.56;81.83
72308;BME280;60257;42.638;23.376;2023-04-25T05:31:48;93755.28;;;10.65;81.65
72308;BME280;60257;42.638;23.376;2023-04-25T05:34:13;93761.97;;;10.67;81.67
72308;BME280;60257;42.638;23.376;2023-04-25T05:36:39;93745.81;;;10.62;81.29
72308;BME280;60257;42.638;23.376;2023-04-25T05:39:04;93760.59;;;10.80;80.77
72308;BME280;60257;42.638;23.376;2023-04-25T05:41:31;93756.63;;;10.78;80.17
72308;BME280;60257;42.638;23.376;2023-04-25T05:43:56;93757.38;;;10.75;79.91
72308;BME280;60257;42.638;23.376;2023-04-25T05:46:22;93762.66;;;10.87;80.12
72308;BME280;60257;42.638;23.376;2023-04-25T05:48:47;93758.94;;;11.02;79.76
72308;BME280;60257;42.638;23.376;2023-04-25T05:51:13;93746.00;;;11.03;79.52
72308;BME280;60257;42.638;23.376;2023-04-25T05:53:38;93758.19;;;11.35;80.19
72308;BME280;60257;42.638;23.376;2023-04-25T05:56:04;93767.38;;;11.50;79.32
72308;BME280;60257;42.638;23.376;2023-04-25T05:58:29;93766.88;;;11.41;79.54
72308;BME280;60257;42.638;23.376;2023-04-25T06:00:55;93761.31;;;11.34;78.92
72308;BME280;60257;42.638;23.376;2023-04-25T06:03:20;93755.47;;;11.39;79.17
72308;BME280;60257;42.638;23.376;2023-04-25T06:05:46;93766.53;;;11.46;79.12
72308;BME280;60257;42.638;23.376;2023-04-25T06:08:11;93762.25;;;11.48;79.66
72308;BME280;60257;42.638;23.376;2023-04-25T06:10:37;93757.63;;;11.52;79.42
72308;BME280;60257;42.638;23.376;2023-04-25T06:13:04;93769.19;;;11.69;79.13
72308;BME280;60257;42.638;23.376;2023-04-25T06:15:30;93759.81;;;11.73;79.42
72308;BME280;60257;42.638;23.376;2023-04-25T06:17:57;93757.13;;;11.77;78.59
72308;BME280;60257;42.638;23.376;2023-04-25T06:20:23;93757.84;;;11.74;78.40
72308;BME280;60257;42.638;23.376;2023-04-25T06:22:50;93760.53;;;11.67;78.90
72308;BME280;60257;42.638;23.376;2023-04-25T06:25:17;93763.56;;;11.58;79.42
72308;BME280;60257;42.638;23.376;2023-04-25T06:27:42;93762.41;;;11.63;79.17
72308;BME280;60257;42.638;23.376;2023-04-25T06:30:08;93763.13;;;11.56;78.51
72308;BME280;60257;42.638;23.376;2023-04-25T06:32:34;93764.28;;;11.55;78.52
72308;BME280;60257;42.638;23.376;2023-04-25T06:35:00;93772.72;;;11.36;79.21
72308;BME280;60257;42.638;23.376;2023-04-25T06:37:26;93754.72;;;11.42;78.51
72308;BME280;60257;42.638;23.376;2023-04-25T06:39:51;93755.31;;;11.58;78.46
72308;BME280;60257;42.638;23.376;2023-04-25T06:42:17;93759.72;;;11.66;77.97
72308;BME280;60257;42.638;23.376;2023-04-25T06:44:43;93771.34;;;11.86;77.53
72308;BME280;60257;42.638;23.376;2023-04-25T06:47:08;93770.66;;;11.63;77.74
72308;BME280;60257;42.638;23.376;2023-04-25T06:49:34;93751.06;;;11.98;77.19
72308;BME280;60257;42.638;23.376;2023-04-25T06:51:59;93768.25;;;12.31;75.60
72308;BME280;60257;42.638;23.376;2023-04-25T06:54:25;93767.50;;;12.34;74.89
72308;BME280;60257;42.638;23.376;2023-04-25T06:56:53;93768.72;;;12.41;74.91
72308;BME280;60257;42.638;23.376;2023-04-25T06:59:18;93762.91;;;12.49;74.17
72308;BME280;60257;42.638;23.376;2023-04-25T07:01:44;93771.84;;;12.90;73.48
72308;BME280;60257;42.638;23.376;2023-04-25T07:04:09;93773.91;;;13.00;72.28
72308;BME280;60257;42.638;23.376;2023-04-25T07:06:35;93761.25;;;12.92;70.74
72308;BME280;60257;42.638;23.376;2023-04-25T07:09:03;93777.72;;;12.85;72.02
72308;BME280;60257;42.638;23.376;2023-04-25T07:11:29;93765.59;;;12.97;73.25
72308;BME280;60257;42.638;23.376;2023-04-25T07:13:55;93754.47;;;13.37;70.40
72308;BME280;60257;42.638;23.376;2023-04-25T07:16:20;93749.78;;;13.48;69.49
72308;BME280;60257;42.638;23.376;2023-04-25T07:18:46;93759.66;;;13.57;69.46
72308;BME280;60257;42.638;23.376;2023-04-25T07:21:11;93772.63;;;13.53;70.25
72308;BME280;60257;42.638;23.376;2023-04-25T07:23:37;93757.31;;;13.59;71.37
72308;BME280;60257;42.638;23.376;2023-04-25T07:26:06;93764.03;;;13.72;71.13
72308;BME280;60257;42.638;23.376;2023-04-25T07:28:31;93747.94;;;13.88;69.06
72308;BME280;60257;42.638;23.376;2023-04-25T07:30:56;93752.31;;;14.07;67.97
72308;BME280;60257;42.638;23.376;2023-04-25T07:33:23;93753.09;;;14.11;67.81
72308;BME280;60257;42.638;23.376;2023-04-25T07:35:48;93760.19;;;14.05;68.12
72308;BME280;60257;42.638;23.376;2023-04-25T07:38:14;93753.91;;;14.11;68.13
72308;BME280;60257;42.638;23.376;2023-04-25T07:40:39;93753.94;;;14.29;66.97
72308;BME280;60257;42.638;23.376;2023-04-25T07:43:05;93751.94;;;14.33;66.31
72308;BME280;60257;42.638;23.376;2023-04-25T07:45:30;93746.44;;;14.37;67.24
72308;BME280;60257;42.638;23.376;2023-04-25T07:47:56;93747.66;;;14.50;65.71
72308;BME280;60257;42.638;23.376;2023-04-25T07:50:21;93747.28;;;14.48;65.66
72308;BME280;60257;42.638;23.376;2023-04-25T07:52:47;93748.47;;;14.54;65.84
72308;BME280;60257;42.638;23.376;2023-04-25T07:55:12;93742.53;;;14.73;66.02
72308;BME280;60257;42.638;23.376;2023-04-25T07:57:38;93747.28;;;14.51;64.29
72308;BME280;60257;42.638;23.376;2023-04-25T08:00:04;93739.75;;;14.20;64.90
72308;BME280;60257;42.638;23.376;2023-04-25T08:02:34;93748.06;;;14.52;64.84
72308;BME280;60257;42.638;23.376;2023-04-25T08:04:59;93731.91;;;14.54;64.55
72308;BME280;60257;42.638;23.376;2023-04-25T08:07:25;93725.59;;;14.57;63.35
72308;BME280;60257;42.638;23.376;2023-04-25T08:09:50;93741.34;;;14.63;63.37
72308;BME280;60257;42.638;23.376;2023-04-25T08:12:16;93737.81;;;14.38;64.26
72308;BME280;60257;42.638;23.376;2023-04-25T08:14:41;93735.41;;;14.26;65.29
72308;BME280;60257;42.638;23.376;2023-04-25T08:17:06;93742.91;;;14.36;64.27
72308;BME280;60257;42.638;23.376;2023-04-25T08:19:32;93734.28;;;14.62;63.15
72308;BME280;60257;42.638;23.376;2023-04-25T08:21:58;93735.44;;;14.72;63.04
72308;BME280;60257;42.638;23.376;2023-04-25T08:24:23;93727.91;;;15.05;62.47
72308;BME280;60257;42.638;23.376;2023-04-25T08:26:49;93728.25;;;15.24;61.24
72308;BME280;60257;42.638;23.376;2023-04-25T08:29:15;93728.94;;;15.50;60.75
72308;BME280;60257;42.638;23.376;2023-04-25T08:31:40;93722.56;;;15.74;60.68
72308;BME280;60257;42.638;23.376;2023-04-25T08:34:05;93719.28;;;16.00;60.37
72308;BME280;60257;42.638;23.376;2023-04-25T08:36:31;93717.59;;;16.17;59.89
72308;BME280;60257;42.638;23.376;2023-04-25T08:38:57;93713.38;;;16.53;59.65
72308;BME280;60257;42.638;23.376;2023-04-25T08:41:23;93715.34;;;16.53;59.94
72308;BME280;60257;42.638;23.376;2023-04-25T08:43:49;93706.06;;;16.77;58.24
72308;BME280;60257;42.638;23.376;2023-04-25T08:46:18;93717.72;;;16.99;56.06
72308;BME280;60257;42.638;23.376;2023-04-25T08:48:45;93721.16;;;16.69;53.80
72308;BME280;60257;42.638;23.376;2023-04-25T08:51:17;93717.22;;;16.70;54.76
72308;BME280;60257;42.638;23.376;2023-04-25T08:53:49;93720.59;;;16.40;57.19
72308;BME280;60257;42.638;23.376;2023-04-25T08:56:16;93722.63;;;16.33;55.32
72308;BME280;60257;42.638;23.376;2023-04-25T08:58:43;93729.22;;;15.87;56.94
72308;BME280;60257;42.638;23.376;2023-04-25T09:01:11;93721.97;;;15.02;58.00
72308;BME280;60257;42.638;23.376;2023-04-25T09:03:36;93729.75;;;15.43;57.10
72308;BME280;60257;42.638;23.376;2023-04-25T09:06:03;93709.16;;;15.65;54.60
72308;BME280;60257;42.638;23.376;2023-04-25T09:08:29;93720.47;;;15.96;53.87
72308;BME280;60257;42.638;23.376;2023-04-25T09:10:55;93714.19;;;15.92;56.63
72308;BME280;60257;42.638;23.376;2023-04-25T09:13:26;93694.94;;;15.70;60.08
72308;BME280;60257;42.638;23.376;2023-04-25T09:15:54;93708.34;;;15.72;61.62
72308;BME280;60257;42.638;23.376;2023-04-25T09:18:30;93708.78;;;15.67;61.04
72308;BME280;60257;42.638;23.376;2023-04-25T09:21:07;93700.97;;;15.37;61.14
72308;BME280;60257;42.638;23.376;2023-04-25T09:23:46;93706.13;;;15.28;60.65
72308;BME280;60257;42.638;23.376;2023-04-25T09:26:17;93700.22;;;15.33;59.62
72308;BME280;60257;42.638;23.376;2023-04-25T09:28:43;93702.13;;;15.43;59.52
72308;BME280;60257;42.638;23.376;2023-04-25T09:31:11;93695.00;;;15.53;59.61
72308;BME280;60257;42.638;23.376;2023-04-25T09:33:37;93696.19;;;15.62;59.88
72308;BME280;60257;42.638;23.376;2023-04-25T09:36:08;93694.56;;;15.65;61.37
72308;BME280;60257;42.638;23.376;2023-04-25T09:38:41;93695.34;;;15.69;61.80
72308;BME280;60257;42.638;23.376;2023-04-25T09:41:08;93690.28;;;15.53;61.87
72308;BME280;60257;42.638;23.376;2023-04-25T09:43:36;93688.31;;;15.47;62.33
72308;BME280;60257;42.638;23.376;2023-04-25T09:46:02;93689.06;;;15.51;62.51
72308;BME280;60257;42.638;23.376;2023-04-25T09:48:28;93697.78;;;15.56;63.27
72308;BME280;60257;42.638;23.376;2023-04-25T09:51:13;93703.34;;;15.35;65.98
72308;BME280;60257;42.638;23.376;2023-04-25T09:53:46;93693.47;;;15.34;67.25
72308;BME280;60257;42.638;23.376;2023-04-25T09:56:15;93699.38;;;15.43;65.74
72308;BME280;60257;42.638;23.376;2023-04-25T09:58:41;93696.97;;;15.63;66.22
72308;BME280;60257;42.638;23.376;2023-04-25T10:01:09;93692.47;;;15.90;66.54
72308;BME280;60257;42.638;23.376;2023-04-25T10:03:37;93694.03;;;15.91;67.06
72308;BME280;60257;42.638;23.376;2023-04-25T10:06:11;93693.63;;;15.93;65.38
72308;BME280;60257;42.638;23.376;2023-04-25T10:08:38;93686.56;;;15.85;63.38
72308;BME280;60257;42.638;23.376;2023-04-25T10:11:06;93685.00;;;15.80;63.19
72308;BME280;60257;42.638;23.376;2023-04-25T10:13:32;93680.31;;;15.77;62.29
72308;BME280;60257;42.638;23.376;2023-04-25T10:16:00;93685.03;;;15.73;61.41
72308;BME280;60257;42.638;23.376;2023-04-25T10:18:26;93681.94;;;15.67;60.51
72308;BME280;60257;42.638;23.376;2023-04-25T10:21:04;93683.56;;;15.54;61.07
72308;BME280;60257;42.638;23.376;2023-04-25T10:23:30;93670.09;;;15.67;61.50
72308;BME280;60257;42.638;23.376;2023-04-25T10:25:57;93700.97;;;15.37;63.01
72308;BME280;60257;42.638;23.376;2023-04-25T10:28:23;93693.91;;;15.32;62.03
72308;BME280;60257;42.638;23.376;2023-04-25T10:31:00;93682.13;;;15.14;56.54
72308;BME280;60257;42.638;23.376;2023-04-25T10:33:37;93667.47;;;15.28;53.68
72308;BME280;60257;42.638;23.376;2023-04-25T10:36:18;93666.69;;;15.31;53.29
72308;BME280;60257;42.638;23.376;2023-04-25T10:38:45;93670.94;;;15.53;53.62
72308;BME280;60257;42.638;23.376;2023-04-25T10:41:13;93684.25;;;15.72;53.97
72308;BME280;60257;42.638;23.376;2023-04-25T10:43:44;93669.19;;;15.84;51.00
72308;BME280;60257;42.638;23.376;2023-04-25T10:46:15;93674.25;;;16.00;52.10
72308;BME280;60257;42.638;23.376;2023-04-25T10:48:51;93670.91;;;16.23;50.11
72308;BME280;60257;42.638;23.376;2023-04-25T10:51:23;93671.59;;;16.34;51.70
72308;BME280;60257;42.638;23.376;2023-04-25T10:54:07;93679.44;;;16.42;53.66
72308;BME280;60257;42.638;23.376;2023-04-25T10:56:38;93683.41;;;15.86;58.14
72308;BME280;60257;42.638;23.376;2023-04-25T10:59:08;93687.91;;;15.52;59.27
72308;BME280;60257;42.638;23.376;2023-04-25T11:01:40;93685.59;;;15.36;58.27
72308;BME280;60257;42.638;23.376;2023-04-25T11:04:06;93682.50;;;15.23;59.04
72308;BME280;60257;42.638;23.376;2023-04-25T11:06:55;93689.50;;;15.42;58.75
72308;BME280;60257;42.638;23.376;2023-04-25T11:09:24;93697.41;;;15.47;58.39
72308;BME280;60257;42.638;23.376;2023-04-25T11:11:57;93690.22;;;15.67;59.99
72308;BME280;60257;42.638;23.376;2023-04-25T11:14:24;93687.66;;;15.98;59.59
72308;BME280;60257;42.638;23.376;2023-04-25T11:16:57;93687.22;;;16.10;62.29
72308;BME280;60257;42.638;23.376;2023-04-25T11:19:24;93672.44;;;16.31;56.68
72308;BME280;60257;42.638;23.376;2023-04-25T11:21:50;93681.78;;;16.47;57.08
72308;BME280;60257;42.638;23.376;2023-04-25T11:24:16;93660.66;;;16.71;53.32
72308;BME280;60257;42.638;23.376;2023-04-25T11:26:43;93662.31;;;16.58;53.68
72308;BME280;60257;42.638;23.376;2023-04-25T11:29:08;93663.34;;;16.27;55.81
72308;BME280;60257;42.638;23.376;2023-04-25T11:31:34;93668.31;;;15.98;52.81
72308;BME280;60257;42.638;23.376;2023-04-25T11:33:59;93663.69;;;15.81;52.58
72308;BME280;60257;42.638;23.376;2023-04-25T11:36:26;93659.75;;;15.78;52.07
72308;BME280;60257;42.638;23.376;2023-04-25T11:38:52;93665.38;;;15.64;52.16
72308;BME280;60257;42.638;23.376;2023-04-25T11:41:20;93665.38;;;15.57;52.01
72308;BME280;60257;42.638;23.376;2023-04-25T11:43:47;93672.09;;;15.59;56.32
72308;BME280;60257;42.638;23.376;2023-04-25T11:46:14;93659.19;;;15.28;58.77
72308;BME280;60257;42.638;23.376;2023-04-25T11:48:42;93670.28;;;15.17;59.82
72308;BME280;60257;42.638;23.376;2023-04-25T11:51:08;93670.72;;;15.01;61.88
72308;BME280;60257;42.638;23.376;2023-04-25T11:53:34;93693.66;;;14.49;63.83
72308;BME280;60257;42.638;23.376;2023-04-25T11:56:01;93701.13;;;14.27;66.46
72308;BME280;60257;42.638;23.376;2023-04-25T11:58:26;93720.03;;;14.25;64.46
72308;BME280;60257;42.638;23.376;2023-04-25T12:00:52;93705.47;;;14.35;66.92
72308;BME280;60257;42.638;23.376;2023-04-25T12:03:18;93703.50;;;14.00;65.97
72308;BME280;60257;42.638;23.376;2023-04-25T12:05:45;93713.31;;;14.05;66.73
72308;BME280;60257;42.638;23.376;2023-04-25T12:08:15;93681.03;;;13.91;68.14
72308;BME280;60257;42.638;23.376;2023-04-25T12:10:45;93680.25;;;14.01;68.54
72308;BME280;60257;42.638;23.376;2023-04-25T12:13:38;93681.44;;;14.14;68.88
72308;BME280;60257;42.638;23.376;2023-04-25T12:16:03;93673.56;;;14.27;67.86
72308;BME280;60257;42.638;23.376;2023-04-25T12:18:29;93664.50;;;14.51;67.07
72308;BME280;60257;42.638;23.376;2023-04-25T12:20:55;93667.22;;;14.80;65.41
72308;BME280;60257;42.638;23.376;2023-04-25T12:23:29;93661.22;;;15.13;64.68
72308;BME280;60257;42.638;23.376;2023-04-25T12:25:55;93654.03;;;15.33;65.14
72308;BME280;60257;42.638;23.376;2023-04-25T12:28:23;93652.03;;;15.37;63.55
72308;BME280;60257;42.638;23.376;2023-04-25T12:33:35;93632.38;;;15.25;62.93
72308;BME280;60257;42.638;23.376;2023-04-25T12:36:01;93643.31;;;15.43;62.30
72308;BME280;60257;42.638;23.376;2023-04-25T12:38:38;93650.38;;;15.58;61.11
72308;BME280;60257;42.638;23.376;2023-04-25T12:41:04;93653.84;;;15.72;61.49
72308;BME280;60257;42.638;23.376;2023-04-25T12:43:30;93666.22;;;15.43;61.20
72308;BME280;60257;42.638;23.376;2023-04-25T12:45:56;93682.28;;;15.73;61.18
72308;BME280;60257;42.638;23.376;2023-04-25T12:48:22;93695.22;;;15.90;58.67
72308;BME280;60257;42.638;23.376;2023-04-25T12:50:49;93703.59;;;15.72;56.87
72308;BME280;60257;42.638;23.376;2023-04-25T12:53:23;93710.53;;;15.04;57.19